| time (UTC) | temp F | wind direction | speed MPH | gust MPH | rain 1hr in | rain 24hr in | rain mn in | humidity % | barometer mb |
| 20260510094546 | 47 | 0 | 0.0 | 2.0 | 0.00 | 0.37 | 0.09 | 96 | 1009.1 |
| 20260510093043 | 47 | 0 | 1.0 | 2.0 | 0.00 | 0.37 | 0.09 | 96 | 1009.0 |
| 20260510091547 | 47 | 178 | 0.0 | 2.0 | 0.00 | 0.37 | 0.09 | 96 | 1008.8 |
| 20260510090049 | 47 | 0 | 0.0 | 2.0 | 0.00 | 0.37 | 0.09 | 96 | 1008.7 |
| 20260510084542 | 47 | 0 | 0.0 | 1.0 | 0.00 | 0.37 | 0.09 | 96 | 1008.6 |
| 20260510083044 | 47 | 0 | 0.0 | 2.0 | 0.00 | 0.37 | 0.09 | 96 | 1008.6 |
| 20260510081551 | 47 | 0 | 0.0 | 2.0 | 0.00 | 0.37 | 0.09 | 96 | 1008.5 |
| 20260510080049 | 47 | 0 | 0.0 | 1.0 | 0.00 | 0.37 | 0.09 | 96 | 1008.4 |
| 20260510074547 | 47 | 0 | 0.0 | 1.0 | 0.00 | 0.37 | 0.09 | 96 | 1008.3 |
| 20260510073044 | 47 | 200 | 1.0 | 2.0 | 0.00 | 0.37 | 0.09 | 96 | 1008.2 |
| 20260510071545 | 47 | 205 | 1.0 | 3.0 | 0.01 | 0.37 | 0.09 | 95 | 1008.1 |
| 20260510070048 | 47 | 212 | 2.0 | 4.0 | 0.01 | 0.37 | 0.09 | 95 | 1008.1 |
| 20260510064541 | 47 | 205 | 1.0 | 3.0 | 0.01 | 0.37 | 0.09 | 96 | 1007.9 |
| 20260510063042 | 48 | 221 | 1.0 | 3.0 | 0.01 | 0.37 | 0.09 | 96 | 1008.0 |
| 20260510061557 | 48 | 209 | 1.0 | 3.0 | 0.00 | 0.36 | 0.08 | 96 | 1008.2 |
| 20260510060048 | 48 | 243 | 2.0 | 3.0 | 0.01 | 0.36 | 0.08 | 95 | 1008.3 |
| 20260510054559 | 48 | 208 | 2.0 | 4.0 | 0.02 | 0.36 | 0.08 | 95 | 1008.3 |
| 20260510053043 | 48 | 232 | 2.0 | 5.0 | 0.05 | 0.36 | 0.08 | 95 | 1008.5 |
| 20260510051540 | 48 | 216 | 1.0 | 4.0 | 0.08 | 0.36 | 0.08 | 95 | 1008.8 |
| 20260510050053 | 48 | 178 | 1.0 | 3.0 | 0.07 | 0.35 | 0.07 | 95 | 1009.1 |
| 20260510044548 | 48 | 221 | 1.0 | 2.0 | 0.06 | 0.34 | 0.06 | 94 | 1009.5 |
| 20260510043043 | 49 | 178 | 0.0 | 3.0 | 0.03 | 0.31 | 0.03 | 93 | 1009.3 |
| 20260510041602 | 49 | 303 | 1.0 | 4.0 | 0.00 | 0.28 | 0.00 | 93 | 1009.6 |
| 20260510040048 | 50 | 292 | 1.0 | 5.0 | 0.00 | 0.28 | 0.00 | 92 | 1009.5 |
| 20260510034547 | 50 | 312 | 2.0 | 12.0 | 0.00 | 0.28 | 0.28 | 93 | 1008.9 |
| 20260510033047 | 49 | 323 | 1.0 | 3.0 | 0.00 | 0.28 | 0.28 | 94 | 1008.5 |
| 20260510031553 | 49 | 205 | 1.0 | 2.0 | 0.00 | 0.28 | 0.28 | 94 | 1007.9 |
| 20260510030048 | 49 | 193 | 0.0 | 3.0 | 0.00 | 0.28 | 0.28 | 94 | 1008.2 |
| 20260510024605 | 49 | 193 | 0.0 | 2.0 | 0.00 | 0.28 | 0.28 | 94 | 1008.1 |
| 20260510023043 | 50 | 0 | 0.0 | 2.0 | 0.00 | 0.28 | 0.28 | 94 | 1007.8 |
| 20260510021544 | 50 | 205 | 1.0 | 2.0 | 0.00 | 0.28 | 0.28 | 94 | 1007.5 |
| 20260510020049 | 50 | 205 | 1.0 | 3.0 | 0.00 | 0.28 | 0.28 | 94 | 1007.6 |
| 20260510014552 | 50 | 221 | 1.0 | 3.0 | 0.00 | 0.28 | 0.28 | 94 | 1007.5 |
| 20260510013057 | 50 | 215 | 1.0 | 3.0 | 0.00 | 0.28 | 0.28 | 94 | 1007.3 |
| 20260510011549 | 50 | 205 | 1.0 | 4.0 | 0.00 | 0.28 | 0.28 | 94 | 1007.2 |
| 20260510010042 | 51 | 221 | 1.0 | 4.0 | 0.00 | 0.28 | 0.28 | 94 | 1007.0 |
| 20260510004546 | 51 | 217 | 1.0 | 3.0 | 0.00 | 0.28 | 0.28 | 94 | 1006.9 |
| 20260510003041 | 51 | 215 | 1.0 | 4.0 | 0.00 | 0.28 | 0.28 | 94 | 1006.5 |
| 20260510001547 | 51 | 178 | 1.0 | 2.0 | 0.00 | 0.28 | 0.28 | 94 | 1006.7 |
| 20260510000048 | 51 | 212 | 1.0 | 2.0 | 0.00 | 0.28 | 0.28 | 93 | 1006.7 |
| 20260509234541 | 51 | 227 | 1.0 | 3.0 | 0.00 | 0.28 | 0.28 | 93 | 1006.5 |
| 20260509233050 | 52 | 221 | 1.0 | 3.0 | 0.00 | 0.28 | 0.28 | 92 | 1006.5 |
| 20260509231555 | 52 | 0 | 1.0 | 3.0 | 0.00 | 0.28 | 0.28 | 92 | 1006.1 |
| 20260509230043 | 52 | 165 | 1.0 | 4.0 | 0.00 | 0.28 | 0.28 | 93 | 1006.2 |
| 20260509224544 | 52 | 202 | 1.0 | 3.0 | 0.00 | 0.28 | 0.28 | 93 | 1006.4 |
| 20260509223050 | 52 | 217 | 1.0 | 3.0 | 0.00 | 0.28 | 0.28 | 93 | 1006.5 |
| 20260509221550 | 52 | 232 | 1.0 | 3.0 | 0.00 | 0.28 | 0.28 | 94 | 1006.3 |
| 20260509220052 | 52 | 231 | 1.0 | 3.0 | 0.00 | 0.28 | 0.28 | 94 | 1006.3 |
| 20260509214548 | 52 | 257 | 1.0 | 4.0 | 0.00 | 0.28 | 0.28 | 95 | 1006.1 |
| 20260509213049 | 51 | 226 | 1.0 | 4.0 | 0.00 | 0.28 | 0.28 | 95 | 1006.5 |
| 20260509211554 | 51 | 235 | 1.0 | 4.0 | 0.00 | 0.28 | 0.28 | 95 | 1006.7 |
| 20260509210054 | 51 | 209 | 1.0 | 4.0 | 0.00 | 0.28 | 0.28 | 95 | 1006.8 |
| 20260509204547 | 51 | 234 | 1.0 | 4.0 | 0.00 | 0.28 | 0.28 | 95 | 1007.1 |
| 20260509203043 | 50 | 247 | 1.0 | 4.0 | 0.00 | 0.28 | 0.28 | 95 | 1007.2 |
| 20260509201546 | 50 | 193 | 1.0 | 3.0 | 0.00 | 0.28 | 0.28 | 96 | 1007.3 |
| 20260509200047 | 50 | 205 | 1.0 | 4.0 | 0.00 | 0.28 | 0.28 | 95 | 1007.4 |
| 20260509194542 | 50 | 153 | 1.0 | 3.0 | 0.00 | 0.28 | 0.28 | 95 | 1007.5 |
| 20260509193047 | 50 | 234 | 1.0 | 3.0 | 0.00 | 0.28 | 0.28 | 95 | 1007.7 |
| 20260509191543 | 50 | 239 | 1.0 | 4.0 | 0.00 | 0.28 | 0.28 | 95 | 1007.7 |
| 20260509190047 | 50 | 168 | 1.0 | 4.0 | 0.00 | 0.28 | 0.28 | 95 | 1007.8 |
| 20260509184543 | 49 | 221 | 1.0 | 4.0 | 0.00 | 0.28 | 0.28 | 95 | 1007.9 |
| 20260509183041 | 49 | 227 | 1.0 | 3.0 | 0.00 | 0.28 | 0.28 | 95 | 1007.8 |
| 20260509181541 | 49 | 205 | 1.0 | 3.0 | 0.00 | 0.28 | 0.28 | 95 | 1007.8 |
| 20260509180047 | 49 | 227 | 1.0 | 4.0 | 0.00 | 0.28 | 0.28 | 95 | 1007.8 |
| 20260509174542 | 49 | 215 | 1.0 | 4.0 | 0.00 | 0.28 | 0.28 | 95 | 1007.8 |
| 20260509173108 | 49 | 221 | 1.0 | 5.0 | 0.00 | 0.28 | 0.28 | 96 | 1007.8 |
| 20260509171545 | 49 | 221 | 0.0 | 3.0 | 0.00 | 0.28 | 0.28 | 95 | 1007.7 |
| 20260509170053 | 49 | 221 | 0.0 | 2.0 | 0.01 | 0.28 | 0.28 | 95 | 1007.6 |
| 20260509164554 | 48 | 205 | 0.0 | 3.0 | 0.01 | 0.28 | 0.28 | 95 | 1007.8 |
| 20260509163048 | 48 | 178 | 1.0 | 3.0 | 0.01 | 0.28 | 0.28 | 95 | 1007.8 |
| 20260509161544 | 48 | 162 | 1.0 | 3.0 | 0.01 | 0.28 | 0.28 | 95 | 1008.0 |
| 20260509160047 | 49 | 221 | 1.0 | 3.0 | 0.01 | 0.27 | 0.27 | 95 | 1008.1 |
| 20260509154548 | 48 | 162 | 1.0 | 3.0 | 0.01 | 0.27 | 0.27 | 95 | 1008.3 |
| 20260509153049 | 49 | 185 | 1.0 | 4.0 | 0.02 | 0.27 | 0.27 | 95 | 1008.1 |
| 20260509151605 | 49 | 171 | 1.0 | 3.0 | 0.03 | 0.27 | 0.27 | 96 | 1008.4 |
| 20260509150053 | 48 | 150 | 1.0 | 4.0 | 0.03 | 0.26 | 0.26 | 96 | 1008.7 |
| 20260509144545 | 48 | 229 | 1.0 | 4.0 | 0.04 | 0.26 | 0.26 | 96 | 1008.8 |
| 20260509143054 | 48 | 187 | 1.0 | 3.0 | 0.04 | 0.25 | 0.25 | 96 | 1008.8 |
| 20260509141552 | 47 | 153 | 1.0 | 2.0 | 0.04 | 0.24 | 0.24 | 96 | 1008.9 |
| 20260509140049 | 47 | 227 | 1.0 | 2.0 | 0.04 | 0.23 | 0.23 | 96 | 1008.9 |
| 20260509134548 | 47 | 238 | 1.0 | 2.0 | 0.05 | 0.22 | 0.22 | 96 | 1008.8 |
| 20260509133041 | 47 | 238 | 1.0 | 2.0 | 0.05 | 0.21 | 0.21 | 96 | 1009.0 |
| 20260509131558 | 46 | 243 | 1.0 | 2.0 | 0.07 | 0.20 | 0.20 | 96 | 1009.0 |
| 20260509130108 | 46 | 190 | 1.0 | 3.0 | 0.08 | 0.19 | 0.19 | 95 | 1009.1 |
| 20260509124544 | 46 | 193 | 0.0 | 2.0 | 0.07 | 0.17 | 0.17 | 95 | 1009.1 |
| 20260509123115 | 46 | 0 | 0.0 | 2.0 | 0.08 | 0.16 | 0.16 | 95 | 1009.2 |
| 20260509121545 | 46 | 0 | 0.0 | 2.0 | 0.08 | 0.13 | 0.13 | 95 | 1009.3 |
| 20260509120050 | 45 | 0 | 0.0 | 2.0 | 0.08 | 0.11 | 0.11 | 95 | 1009.4 |
| 20260509114606 | 45 | 178 | 0.0 | 2.0 | 0.09 | 0.10 | 0.10 | 95 | 1009.4 |
| 20260509113040 | 45 | 196 | 1.0 | 2.0 | 0.08 | 0.08 | 0.08 | 95 | 1009.4 |
| 20260509111542 | 45 | 215 | 0.0 | 2.0 | 0.05 | 0.05 | 0.05 | 95 | 1009.5 |
| 20260509110046 | 45 | 221 | 0.0 | 2.0 | 0.03 | 0.03 | 0.03 | 95 | 1009.2 |
| 20260509104544 | 45 | 0 | 0.0 | 2.0 | 0.01 | 0.01 | 0.01 | 95 | 1009.1 |
| 20260509103044 | 44 | 221 | 0.0 | 2.0 | 0.00 | 0.00 | 0.00 | 94 | 1009.1 |
| 20260509101553 | 45 | 221 | 0.0 | 3.0 | 0.00 | 0.00 | 0.00 | 94 | 1009.2 |
| 20260509100047 | 45 | 243 | 0.0 | 2.0 | 0.00 | 0.00 | 0.00 | 94 | 1008.9 |